Historyczne dane pomiarowe

Dodano dane terminowe – wersja testowa.

Dane z okresu 1951-2019

Wersja bazy: 1.34 [2019-03-16, lista zmian], aktualizacja planowana na 2019-04-15

Dane meteo z obszaru Polski uzyskane na podstawie danych udostępnionych przez Instytut Meteorologii i Gospodarki Wodnej – Państwowy Instytut Badawczy.

 

Wybierz Datę:    

       

TemperaturaWilgotnośćWiatrCiśnienieOpadyŚniegCzas trwania zjawisk
 Stacja t tx tn tng RH VA  wxwx mslp ppp RRR   cm mm wxwxwxwxwxwxwx
2014-10-10 12.6 18.2 9.3 7.3-------- 0.0------------
2014-10-09 13.4 16.5 11.4 10.3-------- 0.0------------
2014-10-08 10.8 13.2 8.6 7.6-------- 0.0------------
2014-10-07 8.2 10.3 6.9 5.1-------- 0.0------------
2014-10-06 5.1 12.4 -0.5 -1.2-------- 0.0------------
2014-10-05 4.5 10.0 0.0 0.0-------- 0.0------------
2014-10-04 6.9 9.5 5.3 5.3-------- 0.0------------
2014-10-03 4.3 8.3 1.0 0.4-------- 0.0------------
2014-10-02 8.5 9.9 7.2--------- 2.3------------
2014-10-01 9.4 12.8 6.6 5.8-------- 25.0------------
2014-09-30 7.1 18.7 -0.1 -0.8-------- 0.0------------
2014-09-29 6.1 17.2 1.0 0.0-------- 0.0------------
2014-09-28 4.2 13.5 -0.7 -1.5-------- 0.0------------
2014-09-27 5.1 8.2 1.9 1.3-------- 8.5------------
2014-09-26 5.2 6.3 4.5 4.3-------- 16.5------------
2014-09-25 4.0 10.8 -0.8 -0.9-------- 16.8------------
2014-09-24 2.7 11.2 -1.0 -1.6-------- 0.1------------
2014-09-23 2.6 4.8 1.2 0.7-------- 13.6------------
2014-09-22 6.5 9.6 4.4--------- 22.2------------
2014-09-21 10.3 14.0 7.4 6.2-------- 9.1------------
2014-09-20 10.5 16.3 5.0 4.0-------- 5.4------------
2014-09-19 11.0 15.3 7.1 5.7-------- 0.0------------
2014-09-18 7.9 15.0 2.9 2.0-------- 0.0------------
2014-09-17 7.7 12.9 4.1 3.4-------- 0.0------------
2014-09-16 10.6 18.5 5.9 4.9-------- 7.5------------
2014-09-15 11.4 17.4 7.3 6.6-------- 0.0------------
2014-09-14 11.8 13.7 10.7 10.6-------- 1.8------------
2014-09-13 11.9 17.4 8.0 7.2-------- 6.8------------
2014-09-12 12.4 18.2 9.4 9.2-------- 7.2------------
2014-09-11 10.2 12.4 7.3 6.9-------- 34.8------------
2014-09-10 10.2 12.3 8.3 7.4-------- 0.1------------
2014-09-09 10.9 16.5 7.0 5.7-------- 3.3------------
2014-09-08 11.1 17.3 6.6 5.5-------- 10.6------------
2014-09-07 11.3 17.6 7.0 5.9-------- 5.4------------
2014-09-06 11.9 18.5 7.0 5.9-------- 3.2------------
2014-09-05 12.0 20.7 5.6 4.5-------- 0.0------------
2014-09-04 12.3 19.6 8.0 7.5-------- 0.0------------
2014-09-03 11.4 14.9 8.8 8.4-------- 0.0------------
2014-09-02 11.5 15.7 7.6 6.8-------- 0.0------------
2014-09-01 12.1 15.6 8.8 8.2-------- 1.1------------
2014-08-31 11.1 17.9 5.8 4.7-------- 0.8------------
2014-08-30 11.2 16.9 6.3 5.4-------- 0.0------------
2014-08-29 7.6 17.2 0.9 0.5-------- 0.0------------
2014-08-28 8.6 14.5 4.6--------- 0.0------------
2014-08-27 7.6 11.2 4.8--------- 10.5------------
2014-08-26- 11.7 2.0 1.6-------- 10.1------------
2014-08-25 6.0 13.0 1.8 1.8-------- 0.3------------
2014-08-24 7.4 10.5 5.7--------- 6.4------------
2014-08-23 10.2 16.3 5.4 4.2-------- 20.5------------
2014-08-22 6.5 13.0 0.4 0.3-------- 0.0------------
2014-08-21 7.7 11.1 5.4 5.0-------- 14.7------------
2014-08-20 9.5 13.5 4.9 4.4-------- 1.3------------
2014-08-19- 16.7 10.5--------- 4.7------------
2014-08-18------------ 0.0------------
2014-08-17------------ 0.0------------
2014-08-16------------ 1.1------------
2014-08-15------------ 12.5------------
2014-08-14------------ 2.9------------
2014-08-13------------ 17.6------------
2014-08-12------------ 1.8------------
365.8 ms

 

Źródłem pochodzenia danych jest Instytut Meteorologii i Gospodarki Wodnej – Państwowy Instytut Badawczy. Dane Instytutu Meteorologii i Gospodarki Wodnej – Państwowego Instytutu Badawczego zostały przetworzone.

Dane źródłowe można odnaleźć na stronie https://dane.imgw.pl